Time;durP1;ratioP1;P1;durP2;ratioP2;P2;SDS_P1;SDS_P2;PMS_P1;PMS_P2;Temp;Humidity;BMP_temperature;BMP_pressure;BME280_temperature;BME280_humidity;BME280_pressure;Samples;Min_cycle;Max_cycle;Signal;HPM_P1;HPM_P2
2024/02/21 00:01:54;;;;;;;;;;;;;;;25.46;38.57;95172.69;4978522;28;9175;-37
2024/02/21 00:04:19;;;;;;;;;;;;;;;25.46;38.89;95167.19;4965196;28;6980;-38
2024/02/21 00:06:46;;;;;;;;;;;;;;;25.48;38.87;95177.72;4959139;28;6967;-37
2024/02/21 00:09:32;;;;;;;;;;;;;;;25.46;39.11;95164.44;4975392;28;9818;-37
2024/02/21 00:12:27;;;;;;;;;;;;;;;25.48;38.94;95169.44;4966427;28;9073;-37
2024/02/21 00:14:55;;;;;;;;;;;;;;;25.46;38.36;95163.69;4936221;29;7644;-37
2024/02/21 00:17:34;;;;;;;;;;;;;;;25.45;38.36;95162.91;4927919;29;9109;-37
2024/02/21 00:20:00;;;;;;;;;;;;;;;25.46;38.95;95167.19;4902019;29;8737;-37
2024/02/21 00:22:31;;;;;;;;;;;;;;;25.45;39.22;95165.66;4902298;29;7078;-37
2024/02/21 00:25:16;;;;;;;;;;;;;;;25.47;39.35;95160.41;4917822;29;9410;-37
2024/02/21 00:28:16;;;;;;;;;;;;;;;25.47;39.11;95165.19;4931248;29;9691;-37
2024/02/21 00:30:56;;;;;;;;;;;;;;;25.43;38.72;95149.66;4936570;29;7281;-37
2024/02/21 00:33:23;;;;;;;;;;;;;;;25.46;38.78;95147.16;4968368;28;7316;-37
2024/02/21 00:35:49;;;;;;;;;;;;;;;25.45;39.09;95143.63;4963613;28;6992;-37
2024/02/21 00:38:14;;;;;;;;;;;;;;;25.44;38.64;95139.38;4976019;28;9066;-37
2024/02/21 00:40:40;;;;;;;;;;;;;;;25.47;39.28;95140.41;4973061;28;7314;-37
2024/02/21 00:43:06;;;;;;;;;;;;;;;25.47;38.68;95140.41;4976016;28;7222;-37
2024/02/21 00:45:42;;;;;;;;;;;;;;;25.48;39.09;95139.16;4977112;28;7199;-37
2024/02/21 00:48:18;;;;;;;;;;;;;;;25.48;38.43;95141.91;4974526;28;7423;-37
2024/02/21 00:50:47;;;;;;;;;;;;;;;25.47;39.11;95143.16;4993896;28;8193;-37
2024/02/21 00:53:41;;;;;;;;;;;;;;;25.46;39.34;95142.41;5037956;28;7080;-37
2024/02/21 00:56:07;;;;;;;;;;;;;;;25.46;38.89;95145.16;5052908;28;6880;-37
2024/02/21 00:58:44;;;;;;;;;;;;;;;25.46;39.27;95134.13;5037747;28;7224;-37
2024/02/21 01:01:09;;;;;;;;;;;;;;;25.45;38.93;95137.41;5054104;28;6994;-37
2024/02/21 01:03:35;;;;;;;;;;;;;;;25.46;38.62;95123.13;5053698;28;8754;-37
2024/02/21 01:06:01;;;;;;;;;;;;;;;25.46;38.48;95114.84;5050831;28;9411;-37
2024/02/21 01:08:29;;;;;;;;;;;;;;;25.47;39.00;95113.59;5052493;28;7054;-37
2024/02/21 01:10:55;;;;;;;;;;;;;;;25.44;38.78;95106.34;5052933;28;7078;-37
2024/02/21 01:13:24;;;;;;;;;;;;;;;25.46;39.04;95108.59;5032040;28;9618;-37
2024/02/21 01:15:52;;;;;;;;;;;;;;;25.46;38.71;95111.34;5043384;28;7049;-37
2024/02/21 01:18:57;;;;;;;;;;;;;;;25.46;39.25;95106.59;5052564;28;8154;-37
2024/02/21 01:21:42;;;;;;;;;;;;;;;25.46;38.94;95114.84;4904207;29;7247;-37
2024/02/21 01:24:08;;;;;;;;;;;;;;;25.47;38.75;95110.84;4935509;29;7129;-57
2024/02/21 01:26:37;;;;;;;;;;;;;;;25.47;38.91;95107.34;4940096;28;9127;-57
2024/02/21 01:29:05;;;;;;;;;;;;;;;25.46;38.36;95103.84;4952700;28;7000;-57
2024/02/21 01:31:32;;;;;;;;;;;;;;;25.45;38.26;95104.34;4924729;29;6975;-57
2024/02/21 01:34:33;;;;;;;;;;;;;;;25.47;38.62;95102.59;4935821;29;8905;-57
2024/02/21 01:36:59;;;;;;;;;;;;;;;25.47;38.91;95102.59;4919484;29;7045;-57
2024/02/21 01:39:34;;;;;;;;;;;;;;;25.45;39.11;95110.59;4935213;29;6995;-57
2024/02/21 01:42:25;;;;;;;;;;;;;;;25.47;38.31;95112.88;4935202;29;10191;-57
2024/02/21 01:44:52;;;;;;;;;;;;;;;25.44;39.18;95109.09;4944987;28;7103;-57
2024/02/21 01:47:49;;;;;;;;;;;;;;;25.47;38.64;95115.63;4954463;28;7392;-57
2024/02/21 01:50:16;;;;;;;;;;;;;;;25.47;38.21;95124.63;4912962;29;8727;-57
2024/02/21 01:53:18;;;;;;;;;;;;;;;25.48;38.31;95120.63;4952973;28;7125;-57
2024/02/21 01:56:05;;;;;;;;;;;;;;;25.47;38.48;95113.59;4979286;28;7273;-57
2024/02/21 01:58:37;;;;;;;;;;;;;;;25.46;38.58;95111.34;4981413;28;7265;-57
2024/02/21 02:01:03;;;;;;;;;;;;;;;25.42;39.18;95098.53;4992527;28;8431;-57
2024/02/21 02:03:32;;;;;;;;;;;;;;;25.45;38.88;95087.81;4991377;28;7007;-57
2024/02/21 02:05:58;;;;;;;;;;;;;;;25.44;38.66;95089.81;4990714;28;9930;-57
2024/02/21 02:08:44;;;;;;;;;;;;;;;25.46;38.69;95083.81;4991808;28;7518;-57
2024/02/21 02:11:20;;;;;;;;;;;;;;;25.45;38.97;95072.03;4993026;28;7302;-57
2024/02/21 02:13:55;;;;;;;;;;;;;;;25.43;38.87;95067.03;4992347;28;8223;-57
2024/02/21 02:16:23;;;;;;;;;;;;;;;25.45;38.53;95060.28;4992173;28;7463;-57
2024/02/21 02:19:12;;;;;;;;;;;;;;;25.47;38.81;95063.28;4992429;28;7464;-57
2024/02/21 02:22:19;;;;;;;;;;;;;;;25.47;38.81;95060.53;4977230;28;7191;-57
2024/02/21 02:24:48;;;;;;;;;;;;;;;25.42;38.88;95048.97;4997081;28;7833;-57
2024/02/21 02:27:20;;;;;;;;;;;;;;;25.44;38.39;95043.00;5026994;28;7090;-58
2024/02/21 02:30:11;;;;;;;;;;;;;;;25.46;39.31;95046.00;5020633;28;7229;-57
2024/02/21 02:32:46;;;;;;;;;;;;;;;25.46;38.55;95048.75;5037157;28;7259;-55
2024/02/21 02:35:28;;;;;;;;;;;;;;;25.43;38.51;95036.72;5040153;28;7018;-56
2024/02/21 02:38:19;;;;;;;;;;;;;;;25.46;38.38;95032.25;5037442;28;7334;-56
2024/02/21 02:40:48;;;;;;;;;;;;;;;25.43;38.34;95027.72;5020812;28;8797;-56
2024/02/21 02:43:21;;;;;;;;;;;;;;;25.44;38.80;95023.72;5036618;28;6983;-57
2024/02/21 02:45:58;;;;;;;;;;;;;;;25.42;38.85;95015.94;5036327;28;7070;-56
2024/02/21 02:48:28;;;;;;;;;;;;;;;25.46;38.38;95017.72;5036818;28;7325;-57
2024/02/21 02:51:01;;;;;;;;;;;;;;;25.44;39.19;95015.44;5037112;28;7280;-56
2024/02/21 02:53:58;;;;;;;;;;;;;;;25.45;39.19;95011.44;5028843;28;7691;-57
2024/02/21 02:56:41;;;;;;;;;;;;;;;25.47;38.28;95019.22;4960716;28;9165;-56
2024/02/21 02:59:08;;;;;;;;;;;;;;;25.43;38.75;95011.94;4976889;28;7234;-56
2024/02/21 03:01:35;;;;;;;;;;;;;;;25.45;38.70;95002.44;4958758;28;7524;-56
2024/02/21 03:04:03;;;;;;;;;;;;;;;25.46;39.24;94998.44;4969877;28;7117;-57
2024/02/21 03:06:33;;;;;;;;;;;;;;;25.46;38.37;94990.94;4958289;28;9055;-56
2024/02/21 03:09:22;;;;;;;;;;;;;;;25.48;38.50;94984.91;4976263;28;8751;-56
2024/02/21 03:11:50;;;;;;;;;;;;;;;25.47;38.64;94994.44;4960358;28;7241;-56
2024/02/21 03:14:33;;;;;;;;;;;;;;;25.47;39.08;94991.69;4975735;28;7253;-56
2024/02/21 03:17:08;;;;;;;;;;;;;;;25.48;38.80;94979.41;4960136;28;6856;-56
2024/02/21 03:19:49;;;;;;;;;;;;;;;25.46;38.73;94973.63;4976177;28;7262;-56
2024/02/21 03:22:15;;;;;;;;;;;;;;;25.48;38.82;94973.91;4975324;28;9517;-56
2024/02/21 03:24:50;;;;;;;;;;;;;;;25.49;38.85;94975.41;4956153;28;9056;-56
2024/02/21 03:27:17;;;;;;;;;;;;;;;25.45;38.36;94961.88;4957186;28;7185;-56
2024/02/21 03:29:43;;;;;;;;;;;;;;;25.47;38.88;94953.13;4972914;28;7053;-56
2024/02/21 03:32:12;;;;;;;;;;;;;;;25.47;38.62;94950.38;4972203;28;7242;-56
2024/02/21 03:34:38;;;;;;;;;;;;;;;25.47;38.79;94945.59;5054744;28;7252;-57
2024/02/21 03:37:04;;;;;;;;;;;;;;;25.46;38.53;94938.59;5056123;28;7087;-56
2024/02/21 03:39:37;;;;;;;;;;;;;;;25.46;39.07;94938.59;5054671;28;7212;-56
2024/02/21 03:42:14;;;;;;;;;;;;;;;25.46;39.07;94933.09;5055137;28;8775;-56
2024/02/21 03:44:42;;;;;;;;;;;;;;;25.44;39.28;94930.09;5055441;28;7206;-39
2024/02/21 03:47:28;;;;;;;;;;;;;;;25.46;38.24;94924.81;5056865;28;8104;-38
2024/02/21 03:50:06;;;;;;;;;;;;;;;25.45;38.68;94912.28;5055644;28;8737;-38
2024/02/21 03:52:43;;;;;;;;;;;;;;;25.49;38.80;94917.56;5055649;28;7246;-39
2024/02/21 03:55:27;;;;;;;;;;;;;;;25.46;38.94;94899.28;5054654;28;8770;-39
2024/02/21 03:58:26;;;;;;;;;;;;;;;25.48;39.04;94902.28;5055690;28;7088;-39
2024/02/21 04:01:03;;;;;;;;;;;;;;;25.46;38.53;94883.50;5056075;28;6993;-39
2024/02/21 04:03:30;;;;;;;;;;;;;;;25.46;39.18;94880.00;5039081;28;9068;-38
2024/02/21 04:05:57;;;;;;;;;;;;;;;25.46;39.16;94874.50;5023134;28;7237;-39
2024/02/21 04:08:23;;;;;;;;;;;;;;;25.43;38.93;94860.47;5018845;28;7183;-40
2024/02/21 04:10:49;;;;;;;;;;;;;;;25.42;38.28;94863.75;5035531;28;9303;-39
2024/02/21 04:13:27;;;;;;;;;;;;;;;25.46;39.23;94869.75;5035917;28;9237;-39
2024/02/21 04:15:52;;;;;;;;;;;;;;;25.46;38.35;94861.47;5018622;28;7337;-39
2024/02/21 04:18:29;;;;;;;;;;;;;;;25.47;38.66;94865.72;5035940;28;7372;-39
2024/02/21 04:20:55;;;;;;;;;;;;;;;25.47;39.11;94865.72;5018724;28;9407;-39
2024/02/21 04:23:22;;;;;;;;;;;;;;;25.45;38.57;94867.50;5034734;28;6992;-39
2024/02/21 04:25:54;;;;;;;;;;;;;;;25.48;39.01;94860.97;5030523;28;7240;-40
2024/02/21 04:28:21;;;;;;;;;;;;;;;25.48;39.00;94847.22;5037931;28;7253;-39
2024/02/21 04:30:47;;;;;;;;;;;;;;;25.48;38.70;94850.72;5038202;28;7216;-39
2024/02/21 04:33:14;;;;;;;;;;;;;;;25.46;38.48;94858.72;5035597;28;6948;-38
2024/02/21 04:35:39;;;;;;;;;;;;;;;25.48;38.79;94861.75;5036360;28;7235;-39
2024/02/21 04:38:06;;;;;;;;;;;;;;;25.47;38.90;94862.97;5035662;28;7164;-39
2024/02/21 04:40:32;;;;;;;;;;;;;;;25.47;38.38;94859.50;5033390;28;9127;-39
2024/02/21 04:43:10;;;;;;;;;;;;;;;25.48;39.24;94858.22;5033724;28;7482;-39
2024/02/21 04:45:39;;;;;;;;;;;;;;;25.47;38.29;94859.50;5017567;28;8741;-39
2024/02/21 04:48:05;;;;;;;;;;;;;;;25.46;38.89;94864.25;5048222;28;7310;-38
2024/02/21 04:50:31;;;;;;;;;;;;;;;25.46;38.97;94869.75;5028459;28;7219;-39
2024/02/21 04:52:57;;;;;;;;;;;;;;;25.47;39.19;94868.47;5027366;28;7048;-40
2024/02/21 04:55:33;;;;;;;;;;;;;;;25.44;38.76;94864.00;5037795;28;6957;-40
2024/02/21 04:58:27;;;;;;;;;;;;;;;25.47;38.25;94862.97;5055032;28;7062;-39
2024/02/21 05:00:58;;;;;;;;;;;;;;;25.46;38.33;94858.72;5054319;28;9769;-40
2024/02/21 05:03:24;;;;;;;;;;;;;;;25.46;39.09;94855.22;5053915;28;8788;-40
2024/02/21 05:05:50;;;;;;;;;;;;;;;25.47;38.63;94845.72;5034232;28;7262;-39
2024/02/21 05:08:16;;;;;;;;;;;;;;;25.48;38.17;94841.69;5036712;28;8753;-40
2024/02/21 05:10:42;;;;;;;;;;;;;;;25.48;38.46;94842.47;5052140;28;7503;-42
2024/02/21 05:13:09;;;;;;;;;;;;;;;25.48;38.99;94827.94;5033443;28;8849;-39
2024/02/21 05:15:35;;;;;;;;;;;;;;;25.48;38.29;94839.69;5052129;28;7173;-40
2024/02/21 05:18:01;;;;;;;;;;;;;;;25.47;38.69;94835.44;5051839;28;7014;-40
2024/02/21 05:20:27;;;;;;;;;;;;;;;25.48;39.38;94833.44;5032299;28;8816;-39
2024/02/21 05:22:53;;;;;;;;;;;;;;;25.47;38.84;94820.94;5033553;28;8770;-40
2024/02/21 05:25:21;;;;;;;;;;;;;;;25.48;38.52;94822.41;5038123;28;7237;-40
2024/02/21 05:27:52;;;;;;;;;;;;;;;25.47;38.51;94816.16;5035422;28;8721;-40
2024/02/21 05:30:20;;;;;;;;;;;;;;;25.50;38.93;94826.19;5035279;28;6990;-39
2024/02/21 05:32:57;;;;;;;;;;;;;;;25.49;39.07;94826.69;5036108;28;9170;-40
2024/02/21 05:35:33;;;;;;;;;;;;;;;25.46;38.70;94817.41;5032928;28;7222;-40
2024/02/21 05:38:21;;;;;;;;;;;;;;;25.49;38.28;94802.63;5050993;28;9088;-40
2024/02/21 05:40:48;;;;;;;;;;;;;;;25.48;39.32;94803.13;5054585;28;7288;-40
2024/02/21 05:43:43;;;;;;;;;;;;;;;25.48;38.92;94814.91;5053599;28;7276;-40
2024/02/21 05:46:40;;;;;;;;;;;;;;;25.49;38.99;94823.94;5054736;28;7585;-39
2024/02/21 05:49:53;;;;;;;;;;;;;;;25.48;38.55;94834.19;4970558;28;9080;-41
2024/02/21 05:52:37;;;;;;;;;;;;;;;25.48;38.61;94836.19;4953715;28;7017;-39
2024/02/21 05:55:19;;;;;;;;;;;;;;;25.48;39.15;94828.69;4939063;28;9102;-40
2024/02/21 05:57:45;;;;;;;;;;;;;;;25.43;39.04;94821.91;4957031;28;7252;-40
2024/02/21 06:00:11;;;;;;;;;;;;;;;25.46;38.37;94822.94;4948477;28;7625;-40
2024/02/21 06:02:37;;;;;;;;;;;;;;;25.47;38.97;94826.44;4973111;28;9556;-42
2024/02/21 06:05:07;;;;;;;;;;;;;;;25.46;38.55;94814.66;4973359;28;6979;-42
2024/02/21 06:07:34;;;;;;;;;;;;;;;25.46;38.80;94813.91;4969870;28;7142;-41
2024/02/21 06:10:04;;;;;;;;;;;;;;;25.46;39.04;94811.91;4957352;28;7228;-41
2024/02/21 06:12:30;;;;;;;;;;;;;;;25.43;38.71;94802.66;4957057;28;7238;-41
2024/02/21 06:15:07;;;;;;;;;;;;;;;25.45;39.13;94795.91;4958578;28;7409;-41
2024/02/21 06:17:53;;;;;;;;;;;;;;;25.45;39.06;94796.63;4971438;28;7133;-41
2024/02/21 06:20:20;;;;;;;;;;;;;;;25.46;39.15;94792.63;4956991;28;7030;-41
2024/02/21 06:22:46;;;;;;;;;;;;;;;25.43;38.27;94786.13;4956843;28;7218;-41
2024/02/21 06:25:13;;;;;;;;;;;;;;;25.46;39.20;94780.84;5002923;28;7272;-41
2024/02/21 06:27:42;;;;;;;;;;;;;;;25.46;39.11;94789.13;5036265;28;7225;-42
2024/02/21 06:30:08;;;;;;;;;;;;;;;25.47;39.14;94791.38;5035935;28;7654;-43
2024/02/21 06:32:35;;;;;;;;;;;;;;;25.42;38.78;94783.88;5050866;28;7038;-42
2024/02/21 06:35:01;;;;;;;;;;;;;;;25.46;39.10;94787.13;5034225;28;7225;-42
2024/02/21 06:37:32;;;;;;;;;;;;;;;25.47;38.71;94793.38;5035220;28;9093;-42
2024/02/21 06:40:01;;;;;;;;;;;;;;;25.47;38.64;94794.13;5051747;28;7230;-41
2024/02/21 06:42:27;;;;;;;;;;;;;;;25.47;38.94;94816.16;5052860;28;7062;-42
2024/02/21 06:44:56;;;;;;;;;;;;;;;25.47;39.15;94813.41;5052401;28;7351;-42
2024/02/21 06:47:26;;;;;;;;;;;;;;;25.47;38.38;94805.13;5053711;28;7228;-43
2024/02/21 06:50:14;;;;;;;;;;;;;;;25.47;38.24;94810.66;5052938;28;7017;-42
2024/02/21 06:52:49;;;;;;;;;;;;;;;25.46;38.65;94809.16;5053771;28;7746;-41
2024/02/21 06:55:19;;;;;;;;;;;;;;;25.45;38.22;94807.66;5050330;28;9074;-42
2024/02/21 06:58:11;;;;;;;;;;;;;;;25.47;38.59;94807.88;5016918;28;7338;-42
2024/02/21 07:00:40;;;;;;;;;;;;;;;25.48;38.20;94819.66;5032522;28;9423;-42
2024/02/21 07:03:06;;;;;;;;;;;;;;;25.47;38.55;94816.16;5016479;28;7709;-42
2024/02/21 07:05:34;;;;;;;;;;;;;;;25.48;38.25;94822.41;5054629;28;9056;-41
2024/02/21 07:08:00;;;;;;;;;;;;;;;25.48;39.02;94823.19;5057885;28;7065;-44
2024/02/21 07:10:27;;;;;;;;;;;;;;;25.48;38.46;94823.19;5055641;28;7254;-43
2024/02/21 07:12:53;;;;;;;;;;;;;;;25.48;38.23;94817.66;5037609;28;6968;-37
2024/02/21 07:15:19;;;;;;;;;;;;;;;25.47;38.69;94824.41;5053725;28;7241;-37
2024/02/21 07:17:49;;;;;;;;;;;;;;;25.46;39.09;94819.41;5053819;28;8500;-38
2024/02/21 07:20:21;;;;;;;;;;;;;;;25.49;38.31;94824.66;5034612;28;8713;-37
2024/02/21 07:22:50;;;;;;;;;;;;;;;25.50;39.04;94826.19;5034682;28;7052;-37
2024/02/21 07:25:22;;;;;;;;;;;;;;;25.51;38.88;94816.69;5039048;28;7007;-38
2024/02/21 07:28:17;;;;;;;;;;;;;;;25.51;38.28;94822.19;5056477;28;7228;-37
2024/02/21 07:30:43;;;;;;;;;;;;;;;25.49;38.52;94815.69;5056049;28;7019;-38
2024/02/21 07:33:10;;;;;;;;;;;;;;;25.50;38.70;94820.69;5057169;28;7347;-37
2024/02/21 07:35:41;;;;;;;;;;;;;;;25.47;39.15;94810.66;5029764;28;7173;-37
2024/02/21 07:38:14;;;;;;;;;;;;;;;25.49;38.84;94819.16;5057082;28;7243;-38
2024/02/21 07:40:51;;;;;;;;;;;;;;;25.47;38.47;94816.16;5039403;28;6996;-37
2024/02/21 07:43:48;;;;;;;;;;;;;;;25.49;38.14;94819.16;5055517;28;8821;-37
2024/02/21 07:46:27;;;;;;;;;;;;;;;25.48;38.79;94812.16;4941391;28;7318;-37
2024/02/21 07:49:31;;;;;;;;;;;;;;;25.50;38.90;94811.66;4949275;28;8754;-37
2024/02/21 07:52:00;;;;;;;;;;;;;;;25.46;38.93;94809.16;4956143;28;9670;-37
2024/02/21 07:54:26;;;;;;;;;;;;;;;25.48;38.61;94806.66;4938569;28;7857;-38
2024/02/21 07:56:52;;;;;;;;;;;;;;;25.49;38.91;94802.63;4938147;28;6984;-38
2024/02/21 07:59:34;;;;;;;;;;;;;;;25.48;39.08;94798.38;4939526;28;6960;-38
2024/02/21 08:02:39;;;;;;;;;;;;;;;25.50;38.67;94795.88;4937161;29;7017;-37
2024/02/21 08:05:05;;;;;;;;;;;;;;;25.49;38.02;94788.88;4938735;28;7162;-38
2024/02/21 08:07:31;;;;;;;;;;;;;;;25.49;38.82;94791.63;4936719;29;7249;-37
2024/02/21 08:09:57;;;;;;;;;;;;;;;25.49;38.10;94782.63;4936771;29;7338;-37
2024/02/21 08:12:36;;;;;;;;;;;;;;;25.49;39.06;94779.88;4936789;29;6989;-37
2024/02/21 08:15:13;;;;;;;;;;;;;;;25.50;38.70;94781.34;4936331;29;7383;-37
2024/02/21 08:17:48;;;;;;;;;;;;;;;25.48;38.48;94773.59;4952708;28;9544;-37
2024/02/21 08:20:19;;;;;;;;;;;;;;;25.50;38.38;94764.84;4939811;28;7284;-38
2024/02/21 08:22:57;;;;;;;;;;;;;;;25.50;38.66;94762.06;5009673;28;8768;-41
2024/02/21 08:25:24;;;;;;;;;;;;;;;25.51;38.42;94764.34;5039049;28;7245;-57
2024/02/21 08:28:08;;;;;;;;;;;;;;;25.51;38.45;94766.34;5038538;28;7079;-57
2024/02/21 08:30:50;;;;;;;;;;;;;;;25.49;38.86;94747.56;5038265;28;7712;-57
2024/02/21 08:33:25;;;;;;;;;;;;;;;25.51;38.00;94758.84;5054689;28;7254;-57
2024/02/21 08:36:24;;;;;;;;;;;;;;;25.53;38.51;94761.84;5054926;28;9248;-57
2024/02/21 08:38:50;;;;;;;;;;;;;;;25.52;38.27;94752.06;4958963;28;9038;-57
2024/02/21 08:41:44;;;;;;;;;;;;;;;25.56;37.75;94762.81;4958656;28;6908;-57
2024/02/21 08:44:10;;;;;;;;;;;;;;;25.55;38.34;94751.06;4973739;28;7494;-57
2024/02/21 08:46:40;;;;;;;;;;;;;;;25.55;38.11;94753.84;4962664;28;6935;-57
2024/02/21 08:49:10;;;;;;;;;;;;;;;25.51;38.23;94760.84;4971922;28;7217;-57
2024/02/21 08:51:53;;;;;;;;;;;;;;;25.54;37.78;94760.56;4970408;28;9385;-57
2024/02/21 08:54:23;;;;;;;;;;;;;;;25.55;38.70;94758.59;4974474;28;7256;-57
2024/02/21 08:56:51;;;;;;;;;;;;;;;25.57;38.61;94759.59;4974394;28;7481;-57
2024/02/21 08:59:20;;;;;;;;;;;;;;;25.58;37.61;94752.09;4969776;28;7465;-57
2024/02/21 09:01:54;;;;;;;;;;;;;;;25.60;38.60;94747.53;4954705;28;7242;-57
2024/02/21 09:04:20;;;;;;;;;;;;;;;25.58;37.81;94744.53;4938525;28;7011;-57
2024/02/21 09:06:49;;;;;;;;;;;;;;;25.59;38.17;94745.31;4955020;28;7068;-57
2024/02/21 09:09:15;;;;;;;;;;;;;;;25.59;38.18;94731.53;4964813;28;7261;-57
2024/02/21 09:11:55;;;;;;;;;;;;;;;25.62;38.21;94739.53;4938858;28;7280;-57
2024/02/21 09:14:30;;;;;;;;;;;;;;;25.61;37.65;94731.78;5007638;28;7196;-57
2024/02/21 09:16:56;;;;;;;;;;;;;;;25.60;37.98;94736.53;5036307;28;9085;-57
2024/02/21 09:19:23;;;;;;;;;;;;;;;25.60;38.24;94733.03;5052254;28;7071;-57
2024/02/21 09:21:49;;;;;;;;;;;;;;;25.62;38.23;94741.56;5051313;28;7232;-57
2024/02/21 09:24:15;;;;;;;;;;;;;;;25.63;37.87;94734.78;5035902;28;7207;-58
2024/02/21 09:27:11;;;;;;;;;;;;;;;25.62;37.92;94739.53;5053690;28;9134;-57
2024/02/21 09:29:57;;;;;;;;;;;;;;;25.65;37.61;94737.78;4935527;29;7354;-57
2024/02/21 09:32:23;;;;;;;;;;;;;;;25.64;38.22;94725.28;4935431;29;7290;-58
2024/02/21 09:35:14;;;;;;;;;;;;;;;25.64;37.58;94737.06;4935773;29;8933;-42
2024/02/21 09:37:41;;;;;;;;;;;;;;;25.64;38.02;94737.06;4942428;28;7063;-41
2024/02/21 09:40:07;;;;;;;;;;;;;;;25.65;38.10;94733.03;4929345;28;7075;-41
2024/02/21 09:42:41;;;;;;;;;;;;;;;25.64;37.94;94726.03;4936479;28;7270;-43
2024/02/21 09:45:46;;;;;;;;;;;;;;;25.66;37.79;94731.03;4954032;28;7272;-41
2024/02/21 09:48:50;;;;;;;;;;;;;;;25.66;38.05;94725.53;4878613;29;7330;-41
2024/02/21 09:51:38;;;;;;;;;;;;;;;25.64;37.64;94723.28;4878591;29;7336;-42
2024/02/21 09:54:18;;;;;;;;;;;;;;;25.67;38.09;94718.75;4878451;29;7265;-42
2024/02/21 09:57:20;;;;;;;;;;;;;;;25.67;38.55;94713.22;4862848;29;7054;-42
2024/02/21 10:00:21;;;;;;;;;;;;;;;25.66;37.70;94707.00;4823191;29;7345;-41
2024/02/21 10:03:24;;;;;;;;;;;;;;;25.64;38.15;94706.75;4789997;29;6992;-41
2024/02/21 10:05:50;;;;;;;;;;;;;;;25.65;37.62;94707.47;4793691;29;8489;-42
2024/02/21 10:08:17;;;;;;;;;;;;;;;25.66;37.96;94707.00;4859488;29;7265;-42
2024/02/21 10:10:45;;;;;;;;;;;;;;;25.65;38.52;94704.72;4859893;29;8808;-41
2024/02/21 10:14:03;;;;;;;;;;;;;;;25.69;38.44;94711.47;4859244;29;7276;-41
2024/02/21 10:16:39;;;;;;;;;;;;;;;25.69;37.61;94714.22;4859452;29;9131;-43
2024/02/21 10:19:06;;;;;;;;;;;;;;;25.70;38.37;94707.47;4860012;29;8865;-41
2024/02/21 10:21:34;;;;;;;;;;;;;;;25.71;38.52;94717.22;4863826;29;7004;-41
2024/02/21 10:24:27;;;;;;;;;;;;;;;25.75;37.86;94700.47;4878311;29;7070;-42
2024/02/21 10:27:32;;;;;;;;;;;;;;;25.75;38.50;94694.94;4878398;29;7217;-41
2024/02/21 10:30:13;;;;;;;;;;;;;;;25.74;38.38;94690.69;4878539;29;6932;-41
2024/02/21 10:32:58;;;;;;;;;;;;;;;25.73;37.65;94684.41;4863998;29;7261;-41
2024/02/21 10:36:17;;;;;;;;;;;;;;;25.78;38.24;94683.66;4915827;29;7003;-41
2024/02/21 10:38:43;;;;;;;;;;;;;;;25.78;37.54;94677.41;4877354;29;9978;-41
2024/02/21 10:41:14;;;;;;;;;;;;;;;25.76;38.03;94674.41;4953119;28;7373;-43
2024/02/21 10:43:59;;;;;;;;;;;;;;;25.79;37.39;94670.63;4976841;28;7230;-38
2024/02/21 10:46:25;;;;;;;;;;;;;;;25.77;37.57;94665.66;4976899;28;7012;-38
2024/02/21 10:49:16;;;;;;;;;;;;;;;25.79;37.35;94665.88;4975635;28;9429;-38
2024/02/21 10:51:45;;;;;;;;;;;;;;;25.79;37.69;94671.41;4958679;28;7076;-38
2024/02/21 10:54:14;;;;;;;;;;;;;;;25.77;37.74;94662.88;4958582;28;7003;-38
2024/02/21 10:57:04;;;;;;;;;;;;;;;25.79;37.38;94660.38;4958887;28;9371;-38
2024/02/21 10:59:40;;;;;;;;;;;;;;;25.83;37.70;94663.63;4975718;28;7624;-38
2024/02/21 11:02:11;;;;;;;;;;;;;;;25.83;37.64;94657.34;4958770;28;7223;-38
2024/02/21 11:04:38;;;;;;;;;;;;;;;25.83;37.47;94652.59;4976534;28;7050;-38
2024/02/21 11:07:05;;;;;;;;;;;;;;;25.83;37.71;94652.59;4976619;28;8824;-38
2024/02/21 11:10:20;;;;;;;;;;;;;;;25.84;37.38;94642.31;4976361;28;8799;-38
2024/02/21 11:13:23;;;;;;;;;;;;;;;25.84;37.94;94636.78;4884446;29;7261;-38
2024/02/21 11:16:06;;;;;;;;;;;;;;;25.81;37.61;94633.06;4940847;28;9164;-39
2024/02/21 11:18:32;;;;;;;;;;;;;;;25.82;37.52;94620.78;4955271;28;7304;-38
2024/02/21 11:21:00;;;;;;;;;;;;;;;25.84;37.39;94614.75;4954919;28;9136;-38
2024/02/21 11:23:37;;;;;;;;;;;;;;;25.82;38.27;94604.25;4939170;28;7284;-38
2024/02/21 11:26:10;;;;;;;;;;;;;;;25.87;37.63;94599.97;4938608;28;9467;-38
2024/02/21 11:28:37;;;;;;;;;;;;;;;25.86;38.16;94599.22;4951276;28;7308;-38
2024/02/21 11:31:09;;;;;;;;;;;;;;;25.86;37.58;94588.19;4950431;28;7067;-38
2024/02/21 11:33:43;;;;;;;;;;;;;;;25.86;37.64;94588.19;4956469;28;7109;-38
2024/02/21 11:36:34;;;;;;;;;;;;;;;25.90;37.31;94576.91;4956671;28;8652;-38
2024/02/21 11:39:05;;;;;;;;;;;;;;;25.89;38.14;94575.41;4956855;28;7243;-38
2024/02/21 11:41:32;;;;;;;;;;;;;;;25.89;37.62;94570.66;4941000;28;8745;-39
2024/02/21 11:47:30;;;;;;;;;;;;;;;25.91;38.15;94562.63;4974487;28;9095;-38
2024/02/21 11:50:04;;;;;;;;;;;;;;;25.91;37.45;94554.34;5038536;28;9078;-38
2024/02/21 11:52:51;;;;;;;;;;;;;;;25.93;37.43;94551.84;5056906;28;9312;-39
2024/02/21 11:55:31;;;;;;;;;;;;;;;25.90;37.81;94552.84;5035928;28;7189;-56
2024/02/21 11:57:57;;;;;;;;;;;;;;;25.89;37.94;94540.34;5035695;28;7014;-57
2024/02/21 12:00:26;;;;;;;;;;;;;;;25.88;38.30;94536.06;5019272;28;9077;-57
2024/02/21 12:03:20;;;;;;;;;;;;;;;25.89;37.46;94534.06;5046682;28;7391;-57
2024/02/21 12:05:46;;;;;;;;;;;;;;;25.88;37.96;94530.56;5045069;28;8745;-57
2024/02/21 12:08:12;;;;;;;;;;;;;;;25.89;37.60;94520.28;5055925;28;7398;-56
2024/02/21 12:10:39;;;;;;;;;;;;;;;25.87;37.46;94507.03;5053573;28;7256;-57
2024/02/21 12:13:09;;;;;;;;;;;;;;;25.87;37.92;94507.03;5053590;28;9176;-57
2024/02/21 12:15:36;;;;;;;;;;;;;;;25.84;38.21;94499.78;5037808;28;7235;-57
2024/02/21 12:18:22;;;;;;;;;;;;;;;25.88;37.87;94505.75;5037479;28;7091;-57
2024/02/21 12:20:49;;;;;;;;;;;;;;;25.89;37.40;94493.50;5056371;28;7978;-56
2024/02/21 12:23:27;;;;;;;;;;;;;;;25.93;37.34;94491.22;5036174;28;9169;-57
2024/02/21 12:26:06;;;;;;;;;;;;;;;25.92;37.65;94489.72;5039059;28;7475;-56
2024/02/21 12:28:40;;;;;;;;;;;;;;;25.93;37.82;94487.69;5035594;28;8742;-57
2024/02/21 12:31:07;;;;;;;;;;;;;;;25.92;38.11;94484.22;5034693;28;9060;-57
2024/02/21 12:33:34;;;;;;;;;;;;;;;25.94;38.11;94478.94;5035625;28;9031;-57
2024/02/21 12:36:00;;;;;;;;;;;;;;;25.96;38.03;94481.94;5029502;28;7862;-57
2024/02/21 12:38:26;;;;;;;;;;;;;;;25.94;38.19;94473.44;5051421;28;7079;-56
2024/02/21 12:40:52;;;;;;;;;;;;;;;25.95;38.23;94469.41;5036494;28;7056;-57
2024/02/21 12:43:24;;;;;;;;;;;;;;;25.96;37.37;94470.16;5037458;28;7188;-57
2024/02/21 12:45:52;;;;;;;;;;;;;;;25.99;37.26;94461.59;5054615;28;7272;-56
2024/02/21 12:48:24;;;;;;;;;;;;;;;25.99;37.86;94461.59;5055605;28;6992;-57
2024/02/21 12:50:56;;;;;;;;;;;;;;;26.01;37.24;94455.59;5053982;28;7285;-57
2024/02/21 12:53:23;;;;;;;;;;;;;;;26.03;37.51;94442.03;5036657;28;9027;-57
2024/02/21 12:56:20;;;;;;;;;;;;;;;26.06;37.49;94446.50;5048136;28;7113;-56
2024/02/21 12:59:17;;;;;;;;;;;;;;;26.05;37.49;94437.53;4977752;28;7413;-57
2024/02/21 13:02:03;;;;;;;;;;;;;;;26.06;37.96;94430.72;4977672;28;7269;-57
2024/02/21 13:04:31;;;;;;;;;;;;;;;26.07;37.68;94435.00;4993775;28;9369;-56
2024/02/21 13:06:57;;;;;;;;;;;;;;;26.10;38.01;94424.97;4977772;28;7316;-56
2024/02/21 13:09:22;;;;;;;;;;;;;;;26.11;37.48;94415.44;4993862;28;8762;-56
2024/02/21 13:11:51;;;;;;;;;;;;;;;26.13;37.29;94418.44;4977494;28;7189;-55
2024/02/21 13:14:33;;;;;;;;;;;;;;;26.16;37.87;94414.66;4977412;28;7053;-56
2024/02/21 13:17:14;;;;;;;;;;;;;;;26.19;37.62;94415.66;4973737;28;8771;-56
2024/02/21 13:19:46;;;;;;;;;;;;;;;26.19;37.02;94404.63;4974090;28;7236;-56
2024/02/21 13:22:12;;;;;;;;;;;;;;;26.21;37.76;94402.09;4983713;28;7223;-56
2024/02/21 13:24:40;;;;;;;;;;;;;;;26.24;36.91;94395.53;4983457;28;8773;-56
2024/02/21 13:27:12;;;;;;;;;;;;;;;26.23;37.15;94383.03;4984696;28;7066;-56
2024/02/21 13:29:39;;;;;;;;;;;;;;;26.26;37.03;94381.97;4992391;28;6987;-56
2024/02/21 13:32:21;;;;;;;;;;;;;;;26.28;37.58;94368.41;4977367;28;7036;-56
2024/02/21 13:34:52;;;;;;;;;;;;;;;26.29;37.69;94367.16;4991488;28;7074;-56
2024/02/21 13:37:32;;;;;;;;;;;;;;;26.27;37.46;94359.41;5030012;28;7266;-56
2024/02/21 13:39:57;;;;;;;;;;;;;;;26.27;36.96;94353.16;5037178;28;9106;-56
2024/02/21 13:42:27;;;;;;;;;;;;;;;26.29;36.90;94347.88;5052414;28;7046;-56